Time;durP1;ratioP1;P1;durP2;ratioP2;P2;SDS_P1;SDS_P2;PMS_P1;PMS_P2;Temp;Humidity;BMP_temperature;BMP_pressure;BME280_temperature;BME280_humidity;BME280_pressure;Samples;Min_cycle;Max_cycle;Signal;HPM_P1;HPM_P2
2021/12/02 00:00:31;;;;;;;28.25;15.07;;;;;;;;;;5024215;28;20025;-80
2021/12/02 00:02:57;;;;;;;33.20;15.57;;;;;;;;;;5024207;28;20048;-80
2021/12/02 00:05:24;;;;;;;34.95;16.02;;;;;;;;;;5024011;28;20022;-80
2021/12/02 00:07:51;;;;;;;35.50;17.48;;;;;;;;;;5024209;28;20032;-81
2021/12/02 00:10:17;;;;;;;32.88;17.88;;;;;;;;;;5042224;28;20080;-80
2021/12/02 00:12:44;;;;;;;33.65;17.75;;;;;;;;;;5028871;23;20037;-80
2021/12/02 00:15:18;;;;;;;29.77;14.73;;;;;;;;;;5041390;28;20104;-81
2021/12/02 00:17:52;;;;;;;28.50;14.80;;;;;;;;;;5041976;28;20080;-80
2021/12/02 00:23:17;;;;;;;32.10;13.55;;;;;;;;;;5041381;28;20059;-80
2021/12/02 00:25:43;;;;;;;28.02;14.73;;;;;;;;;;5046769;23;20037;-80
2021/12/02 00:28:09;;;;;;;37.38;21.80;;;;;;;;;;5040949;28;20035;-81
2021/12/02 00:30:35;;;;;;;41.00;22.50;;;;;;;;;;5040920;28;20081;-81
2021/12/02 00:33:01;;;;;;;41.15;20.70;;;;;;;;;;5040720;28;20029;-81
2021/12/02 00:35:27;;;;;;;37.92;18.48;;;;;;;;;;5041002;28;20014;-80
2021/12/02 00:37:53;;;;;;;23.45;13.02;;;;;;;;;;5006749;28;20128;-80
2021/12/02 00:40:19;;;;;;;16.13;8.45;;;;;;;;;;5023031;28;20017;-81
2021/12/02 00:42:45;;;;;;;27.58;13.20;;;;;;;;;;5023643;28;20018;-80
2021/12/02 00:45:11;;;;;;;17.98;10.32;;;;;;;;;;5040474;28;20017;-81
2021/12/02 00:47:38;;;;;;;30.30;11.88;;;;;;;;;;5041129;28;20066;-80
2021/12/02 00:50:04;;;;;;;29.70;15.18;;;;;;;;;;5022816;28;20020;-80
2021/12/02 00:52:31;;;;;;;31.80;14.82;;;;;;;;;;5040117;28;20428;-80
2021/12/02 00:54:57;;;;;;;33.42;21.88;;;;;;;;;;5041044;28;20029;-81
2021/12/02 00:57:23;;;;;;;36.67;19.42;;;;;;;;;;5046199;23;20391;-80
2021/12/02 00:59:49;;;;;;;33.15;22.20;;;;;;;;;;5040362;28;20041;-80
2021/12/02 01:02:16;;;;;;;51.90;31.60;;;;;;;;;;5033323;23;20041;-81
2021/12/02 01:04:42;;;;;;;47.95;26.95;;;;;;;;;;5039635;28;20013;-80
2021/12/02 01:07:08;;;;;;;47.65;31.15;;;;;;;;;;5022164;28;20013;-80
2021/12/02 01:09:35;;;;;;;44.17;28.73;;;;;;;;;;5040154;28;20017;-81
2021/12/02 01:12:01;;;;;;;101.18;73.47;;;;;;;;;;5006603;28;20328;-81
2021/12/02 01:14:27;;;;;;;41.63;27.75;;;;;;;;;;5022160;28;20057;-80
2021/12/02 01:16:54;;;;;;;36.50;18.00;;;;;;;;;;5005713;28;20132;-81
2021/12/02 01:19:20;;;;;;;39.30;19.80;;;;;;;;;;5039341;28;20100;-80
2021/12/02 01:21:47;;;;;;;41.45;17.58;;;;;;;;;;5040052;28;20032;-80
2021/12/02 01:24:14;;;;;;;43.88;18.05;;;;;;;;;;5021375;28;20018;-81
2021/12/02 01:26:40;;;;;;;38.65;17.67;;;;;;;;;;5005470;28;20331;-81
2021/12/02 01:29:06;;;;;;;38.60;17.48;;;;;;;;;;5005348;28;20033;-81
2021/12/02 01:31:36;;;;;;;29.05;14.27;;;;;;;;;;5021881;28;20024;-81
2021/12/02 01:34:07;;;;;;;26.70;15.73;;;;;;;;;;5021718;28;20339;-81
2021/12/02 01:36:35;;;;;;;30.40;16.85;;;;;;;;;;5021405;28;20037;-81
2021/12/02 01:39:04;;;;;;;32.47;15.95;;;;;;;;;;5039166;28;20273;-81
2021/12/02 01:44:00;;;;;;;70.78;29.08;;;;;;;;;;5085349;22;20067;-80
2021/12/02 01:46:26;;;;;;;66.72;33.40;;;;;;;;;;5040517;28;20132;-80
2021/12/02 01:49:05;;;;;;;79.25;30.20;;;;;;;;;;5045133;22;20052;-80
2021/12/02 01:51:37;;;;;;;71.63;28.73;;;;;;;;;;5021233;28;20021;-80
2021/12/02 01:54:07;;;;;;;81.10;32.67;;;;;;;;;;5021912;28;20477;-80
2021/12/02 01:56:40;;;;;;;73.97;34.45;;;;;;;;;;5048332;22;20041;-80
2021/12/02 01:59:11;;;;;;;41.20;17.08;;;;;;;;;;5038334;28;20037;-81
2021/12/02 02:01:37;;;;;;;40.95;19.00;;;;;;;;;;5020967;28;20026;-81
2021/12/02 02:04:03;;;;;;;38.58;15.07;;;;;;;;;;5037962;28;20029;-80
2021/12/02 02:06:30;;;;;;;26.52;13.60;;;;;;;;;;5019087;28;20416;-80
2021/12/02 02:08:58;;;;;;;28.00;13.35;;;;;;;;;;5038093;28;20021;-81
2021/12/02 02:11:28;;;;;;;23.30;12.63;;;;;;;;;;5038682;28;20017;-81
2021/12/02 02:13:54;;;;;;;21.85;11.77;;;;;;;;;;5020805;28;20022;-81
2021/12/02 02:16:21;;;;;;;35.28;13.07;;;;;;;;;;5037046;28;20018;-81
2021/12/02 02:18:47;;;;;;;39.70;17.77;;;;;;;;;;5022005;28;20029;-81
2021/12/02 02:21:18;;;;;;;36.08;16.27;;;;;;;;;;5021914;28;20026;-81
2021/12/02 02:23:50;;;;;;;31.13;14.60;;;;;;;;;;5020737;28;20029;-81
2021/12/02 02:26:22;;;;;;;24.52;12.32;;;;;;;;;;5038604;28;20017;-81
2021/12/02 02:28:49;;;;;;;50.10;15.88;;;;;;;;;;5061912;22;20068;-81
2021/12/02 02:31:15;;;;;;;28.33;11.63;;;;;;;;;;5038253;28;20378;-81
2021/12/02 02:33:41;;;;;;;28.63;11.88;;;;;;;;;;5039036;28;20018;-81
2021/12/02 02:36:08;;;;;;;26.50;11.80;;;;;;;;;;5021460;28;20083;-80
2021/12/02 02:38:36;;;;;;;27.10;12.70;;;;;;;;;;5023301;28;20037;-82
2021/12/02 02:41:05;;;;;;;36.83;12.05;;;;;;;;;;5023215;28;20013;-81
2021/12/02 02:43:34;;;;;;;23.55;12.85;;;;;;;;;;5062284;22;20042;-80
2021/12/02 02:46:00;;;;;;;27.60;13.35;;;;;;;;;;5037963;28;20022;-80
2021/12/02 02:48:26;;;;;;;27.40;14.98;;;;;;;;;;5017600;28;20057;-81
2021/12/02 02:50:52;;;;;;;25.90;14.63;;;;;;;;;;5018212;28;20504;-80
2021/12/02 02:53:23;;;;;;;23.67;13.13;;;;;;;;;;5016364;28;20366;-81
2021/12/02 02:56:00;;;;;;;24.40;14.80;;;;;;;;;;5107255;22;20378;-80
2021/12/02 03:04:10;;;;;;;36.50;14.40;;;;;;;;;;5035114;28;20021;-80
2021/12/02 03:12:08;;;;;;;35.22;15.60;;;;;;;;;;5028759;28;20037;-81
2021/12/02 03:17:09;;;;;;;27.80;12.10;;;;;;;;;;5016555;28;20068;-80
2021/12/02 03:19:39;;;;;;;33.17;12.15;;;;;;;;;;5017187;28;20056;-81
2021/12/02 03:22:05;;;;;;;34.28;15.65;;;;;;;;;;5035140;28;20022;-81
2021/12/02 03:24:31;;;;;;;26.63;12.52;;;;;;;;;;5041708;23;20363;-81
2021/12/02 03:26:57;;;;;;;32.15;16.15;;;;;;;;;;5034752;28;20025;-81
2021/12/02 03:29:23;;;;;;;33.38;15.52;;;;;;;;;;5022842;23;20029;-81
2021/12/02 03:31:49;;;;;;;34.65;16.00;;;;;;;;;;5034722;28;20024;-81
2021/12/02 03:34:16;;;;;;;42.08;15.80;;;;;;;;;;5017049;28;20029;-81
2021/12/02 03:36:47;;;;;;;25.52;12.13;;;;;;;;;;5017509;28;20021;-80
2021/12/02 03:39:13;;;;;;;22.00;11.52;;;;;;;;;;5035760;28;20025;-81
2021/12/02 03:41:40;;;;;;;22.30;12.23;;;;;;;;;;5040733;23;20350;-81
2021/12/02 03:44:07;;;;;;;32.03;11.32;;;;;;;;;;5003255;28;20124;-81
2021/12/02 03:46:33;;;;;;;23.08;10.45;;;;;;;;;;5000962;28;20140;-81
2021/12/02 03:49:00;;;;;;;24.55;10.30;;;;;;;;;;5049912;23;20053;-80
2021/12/02 03:51:28;;;;;;;15.85;9.18;;;;;;;;;;5006336;23;20129;-81
2021/12/02 03:53:55;;;;;;;19.35;9.55;;;;;;;;;;5016590;28;20136;-81
2021/12/02 03:56:23;;;;;;;23.38;10.02;;;;;;;;;;5018048;28;20053;-80
2021/12/02 03:58:50;;;;;;;27.67;10.55;;;;;;;;;;5019775;28;20048;-80
2021/12/02 04:01:17;;;;;;;22.00;9.77;;;;;;;;;;5001893;28;20312;-80
2021/12/02 04:03:44;;;;;;;20.08;9.55;;;;;;;;;;5036914;28;20056;-81
2021/12/02 04:06:11;;;;;;;26.25;11.68;;;;;;;;;;5035963;28;20322;-82
2021/12/02 04:08:50;;;;;;;23.52;9.63;;;;;;;;;;5018933;28;20104;-81
2021/12/02 04:11:22;;;;;;;;;;;;;;;;;;5019153;28;20079;-80
2021/12/02 04:16:20;;;;;;;;;;;;;;;;;;5058722;22;20021;-83
2021/12/02 04:18:46;;;;;;;17.42;6.45;;;;;;;;;;5038099;23;20260;-81
2021/12/02 04:21:12;;;;;;;22.17;6.72;;;;;;;;;;5033592;28;20060;-81
2021/12/02 04:23:41;;;;;;;14.52;5.55;;;;;;;;;;5015633;28;20025;-80
2021/12/02 04:26:11;;;;;;;14.20;5.50;;;;;;;;;;5016254;28;20431;-80
2021/12/02 04:28:40;;;;;;;13.02;5.03;;;;;;;;;;5027339;23;20152;-80
2021/12/02 04:31:07;;;;;;;27.90;7.55;;;;;;;;;;5038370;28;20021;-81
2021/12/02 04:33:34;;;;;;;20.77;8.32;;;;;;;;;;5036584;28;20018;-81
2021/12/02 04:36:01;;;;;;;45.38;6.43;;;;;;;;;;5042162;23;20162;-80
2021/12/02 04:38:27;;;;;;;11.90;5.43;;;;;;;;;;5019386;28;20034;-80
2021/12/02 04:40:54;;;;;;;17.60;6.88;;;;;;;;;;5035924;28;20044;-81
2021/12/02 04:43:22;;;;;;;24.25;5.40;;;;;;;;;;5005451;28;20420;-79
2021/12/02 04:45:50;;;;;;;16.38;5.03;;;;;;;;;;5041977;28;20029;-79
2021/12/02 04:48:34;;;;;;;17.75;5.10;;;;;;;;;;5030192;23;20029;-80
2021/12/02 04:51:00;;;;;;;20.05;4.63;;;;;;;;;;4982742;28;20072;-79
2021/12/02 04:53:27;;;;;;;16.50;5.63;;;;;;;;;;5018256;28;20024;-79
2021/12/02 04:55:56;;;;;;;15.30;5.72;;;;;;;;;;5043549;22;20041;-78
2021/12/02 04:58:25;;;;;;;14.98;5.28;;;;;;;;;;5038629;28;20431;-78
2021/12/02 05:00:52;;;;;;;18.13;5.33;;;;;;;;;;5069169;23;20079;-80
2021/12/02 05:03:19;;;;;;;16.80;5.88;;;;;;;;;;5024647;28;20025;-81
2021/12/02 05:05:46;;;;;;;10.93;3.65;;;;;;;;;;5070845;22;20064;-80
2021/12/02 05:08:12;;;;;;;6.70;3.17;;;;;;;;;;5038199;28;20021;-81
2021/12/02 05:10:38;;;;;;;16.02;3.85;;;;;;;;;;5038629;28;20047;-80
2021/12/02 05:13:07;;;;;;;12.75;3.67;;;;;;;;;;5020269;28;20052;-79
2021/12/02 05:15:34;;;;;;;8.40;2.87;;;;;;;;;;5002373;28;20021;-79
2021/12/02 05:18:03;;;;;;;7.63;3.75;;;;;;;;;;5022706;28;20037;-79
2021/12/02 05:20:30;;;;;;;17.30;4.03;;;;;;;;;;5022090;28;20013;-79
2021/12/02 05:22:56;;;;;;;32.85;7.18;;;;;;;;;;5022547;28;20037;-78
2021/12/02 05:25:23;;;;;;;17.65;4.93;;;;;;;;;;5024207;28;20076;-79
2021/12/02 05:27:50;;;;;;;9.43;2.22;;;;;;;;;;5004123;28;20025;-79
2021/12/02 05:30:17;;;;;;;11.57;3.08;;;;;;;;;;5043943;23;20033;-79
2021/12/02 05:32:46;;;;;;;14.93;5.32;;;;;;;;;;5059995;22;20061;-76
2021/12/02 05:35:13;;;;;;;11.80;3.28;;;;;;;;;;5019542;28;20127;-79
2021/12/02 05:37:41;;;;;;;9.38;3.53;;;;;;;;;;5018133;28;20442;-78
2021/12/02 05:40:13;;;;;;;15.23;2.67;;;;;;;;;;5016122;28;20091;-78
2021/12/02 05:42:43;;;;;;;18.58;3.90;;;;;;;;;;5000355;28;20071;-77
2021/12/02 05:45:15;;;;;;;6.32;2.42;;;;;;;;;;5019154;28;20052;-79
2021/12/02 05:47:43;;;;;;;8.07;2.05;;;;;;;;;;5003171;28;20025;-78
2021/12/02 05:50:16;;;;;;;11.90;3.17;;;;;;;;;;5020278;28;20097;-77
2021/12/02 05:52:53;;;;;;;5.35;2.13;;;;;;;;;;5004401;28;20028;-79
2021/12/02 05:55:30;;;;;;;12.32;2.90;;;;;;;;;;5030888;23;20054;-80
2021/12/02 05:58:06;;;;;;;15.77;3.08;;;;;;;;;;5036365;28;20049;-79
2021/12/02 06:00:50;;;;;;;;;;;;;;;;;;5037598;28;20014;-79
2021/12/02 06:03:19;;;;;;;59.38;9.30;;;;;;;;;;5003629;28;19901;-82
2021/12/02 06:05:47;;;;;;;7.95;2.70;;;;;;;;;;5004131;28;20021;-81
2021/12/02 06:08:14;;;;;;;27.98;4.97;;;;;;;;;;5035881;28;20010;-80
2021/12/02 06:10:40;;;;;;;9.73;4.78;;;;;;;;;;5005667;28;20053;-81
2021/12/02 06:13:07;;;;;;;13.60;2.60;;;;;;;;;;5019577;28;20037;-80
2021/12/02 06:15:36;;;;;;;14.20;2.97;;;;;;;;;;5037757;28;20083;-80
2021/12/02 06:18:02;;;;;;;6.43;3.00;;;;;;;;;;5002384;28;20611;-80
2021/12/02 06:20:29;;;;;;;7.20;2.70;;;;;;;;;;5003293;28;20029;-80
2021/12/02 06:22:56;;;;;;;11.25;2.38;;;;;;;;;;4987738;28;20060;-81
2021/12/02 06:27:58;;;;;;;9.60;2.83;;;;;;;;;;5021632;28;20018;-80
2021/12/02 06:30:25;;;;;;;9.70;2.92;;;;;;;;;;4993901;28;20079;-80
2021/12/02 06:32:52;;;;;;;9.68;3.10;;;;;;;;;;5026365;28;20403;-80
2021/12/02 06:35:18;;;;;;;5.60;2.88;;;;;;;;;;5004996;28;20071;-81
2021/12/02 06:37:46;;;;;;;4.10;2.33;;;;;;;;;;5004796;28;20040;-81
2021/12/02 06:40:12;;;;;;;6.93;3.78;;;;;;;;;;5025517;23;20117;-81
2021/12/02 06:42:40;;;;;;;5.32;2.90;;;;;;;;;;5025897;23;20237;-80
2021/12/02 06:45:06;;;;;;;9.10;3.78;;;;;;;;;;5043878;23;20073;-80
2021/12/02 06:47:41;;;;;;;7.28;2.70;;;;;;;;;;5023650;28;20044;-80
2021/12/02 06:50:17;;;;;;;9.35;2.53;;;;;;;;;;5023093;28;20091;-79
2021/12/02 06:52:44;;;;;;;7.50;3.60;;;;;;;;;;5019313;28;20026;-80
2021/12/02 06:55:11;;;;;;;5.90;2.95;;;;;;;;;;5019122;28;20124;-81
2021/12/02 06:57:37;;;;;;;6.20;2.95;;;;;;;;;;5036960;28;20485;-80
2021/12/02 07:00:08;;;;;;;15.88;3.65;;;;;;;;;;4991746;28;20095;-80
2021/12/02 07:02:37;;;;;;;6.25;2.55;;;;;;;;;;4996602;28;20525;-81
2021/12/02 07:05:08;;;;;;;6.80;2.75;;;;;;;;;;5003765;28;20044;-81
2021/12/02 07:07:38;;;;;;;8.55;2.90;;;;;;;;;;5010237;23;20095;-80
2021/12/02 07:10:05;;;;;;;4.97;3.28;;;;;;;;;;5024415;23;20135;-80
2021/12/02 07:12:33;;;;;;;7.80;2.63;;;;;;;;;;5030117;23;20097;-79
2021/12/02 07:15:13;;;;;;;6.00;2.22;;;;;;;;;;5011730;28;20021;-80
2021/12/02 07:17:42;;;;;;;8.93;2.13;;;;;;;;;;5015692;28;20036;-80
2021/12/02 07:20:09;;;;;;;8.50;2.92;;;;;;;;;;5020674;23;20045;-81
2021/12/02 07:22:35;;;;;;;12.80;3.10;;;;;;;;;;5035855;28;20032;-81
2021/12/02 07:25:04;;;;;;;8.25;2.30;;;;;;;;;;5036970;28;20021;-81
2021/12/02 07:27:31;;;;;;;11.20;3.47;;;;;;;;;;5018745;28;20108;-81
2021/12/02 07:29:57;;;;;;;6.68;2.60;;;;;;;;;;5036001;28;20033;-79
2021/12/02 07:32:28;;;;;;;13.65;2.95;;;;;;;;;;5035194;28;20100;-80
2021/12/02 07:35:00;;;;;;;18.27;4.53;;;;;;;;;;5016651;28;20041;-82
2021/12/02 07:37:26;;;;;;;6.82;2.75;;;;;;;;;;5031418;23;20422;-81
2021/12/02 07:39:52;;;;;;;8.98;3.45;;;;;;;;;;5034233;28;20101;-81
2021/12/02 07:42:19;;;;;;;11.02;4.60;;;;;;;;;;5040990;23;20053;-80
2021/12/02 07:44:54;;;;;;;11.25;3.85;;;;;;;;;;5056225;22;20279;-79
2021/12/02 07:47:44;;;;;;;9.88;4.15;;;;;;;;;;5019217;23;20126;-79
2021/12/02 07:50:19;;;;;;;11.07;4.32;;;;;;;;;;5016389;28;20017;-79
2021/12/02 07:55:40;;;;;;;7.47;3.58;;;;;;;;;;5070289;22;20099;-79
2021/12/02 07:58:07;;;;;;;9.43;3.28;;;;;;;;;;5035775;28;20040;-80
2021/12/02 08:00:34;;;;;;;11.52;2.55;;;;;;;;;;5017457;28;20438;-80
2021/12/02 08:03:00;;;;;;;9.25;2.95;;;;;;;;;;5036712;28;20032;-81
2021/12/02 08:05:27;;;;;;;8.57;3.22;;;;;;;;;;5036200;28;20100;-80
2021/12/02 08:07:56;;;;;;;8.32;3.17;;;;;;;;;;5017841;28;20018;-80
2021/12/02 08:10:24;;;;;;;14.20;2.75;;;;;;;;;;5035834;28;20420;-79
2021/12/02 08:12:59;;;;;;;10.43;4.63;;;;;;;;;;5002687;28;20033;-80
2021/12/02 08:15:27;;;;;;;9.48;3.67;;;;;;;;;;5004876;28;20607;-79
2021/12/02 08:17:57;;;;;;;6.75;2.17;;;;;;;;;;5040172;28;20083;-79
2021/12/02 08:20:24;;;;;;;10.40;3.55;;;;;;;;;;5041249;28;20010;-79
2021/12/02 08:22:54;;;;;;;7.85;3.42;;;;;;;;;;5021413;28;20036;-80
2021/12/02 08:25:23;;;;;;;10.38;3.85;;;;;;;;;;5022279;28;20017;-80
2021/12/02 08:27:52;;;;;;;12.45;4.45;;;;;;;;;;4991120;28;20100;-80
2021/12/02 08:30:22;;;;;;;15.52;4.25;;;;;;;;;;5006938;28;20018;-80
2021/12/02 08:32:49;;;;;;;17.20;4.57;;;;;;;;;;5040426;28;20013;-80
2021/12/02 08:35:21;;;;;;;16.70;4.32;;;;;;;;;;5039072;28;20029;-80
2021/12/02 08:37:50;;;;;;;12.73;3.80;;;;;;;;;;4989706;28;20056;-80
2021/12/02 08:40:19;;;;;;;15.18;4.40;;;;;;;;;;5022705;28;20022;-80
2021/12/02 08:42:46;;;;;;;15.57;5.10;;;;;;;;;;5065742;22;20050;-80
2021/12/02 08:45:13;;;;;;;15.07;5.47;;;;;;;;;;5062743;23;20079;-80
2021/12/02 08:47:47;;;;;;;16.27;5.40;;;;;;;;;;5021157;28;20044;-80
2021/12/02 08:50:16;;;;;;;12.93;4.30;;;;;;;;;;5039464;28;20029;-81
2021/12/02 08:52:43;;;;;;;15.80;4.05;;;;;;;;;;5026993;23;20030;-80
2021/12/02 08:55:10;;;;;;;8.63;2.83;;;;;;;;;;5022173;28;20021;-80
2021/12/02 08:57:36;;;;;;;13.77;4.40;;;;;;;;;;5039748;28;20530;-79
2021/12/02 09:00:07;;;;;;;19.17;4.85;;;;;;;;;;5004836;28;20105;-80
2021/12/02 09:02:34;;;;;;;26.45;6.00;;;;;;;;;;5038403;28;20022;-80
2021/12/02 09:05:00;;;;;;;11.48;4.90;;;;;;;;;;5021532;28;20028;-80
2021/12/02 09:07:26;;;;;;;13.98;3.47;;;;;;;;;;5038815;28;20025;-81
2021/12/02 09:09:52;;;;;;;10.63;3.65;;;;;;;;;;5020535;28;20411;-80
2021/12/02 09:12:18;;;;;;;10.55;3.33;;;;;;;;;;5021076;28;20029;-80
2021/12/02 09:14:44;;;;;;;18.45;5.75;;;;;;;;;;5020933;28;20026;-80
2021/12/02 09:17:10;;;;;;;22.88;7.03;;;;;;;;;;5038608;28;20079;-80
2021/12/02 09:19:37;;;;;;;15.95;5.20;;;;;;;;;;5020937;28;20075;-80
2021/12/02 09:22:03;;;;;;;13.00;5.05;;;;;;;;;;5039005;28;20017;-80
2021/12/02 09:24:29;;;;;;;17.88;5.63;;;;;;;;;;5044447;23;20371;-80
2021/12/02 09:26:55;;;;;;;18.65;3.58;;;;;;;;;;5038974;28;20017;-80
2021/12/02 09:29:22;;;;;;;22.90;5.43;;;;;;;;;;5049912;23;20262;-80
2021/12/02 09:31:49;;;;;;;22.88;4.63;;;;;;;;;;5039491;28;20029;-80
2021/12/02 09:34:15;;;;;;;20.13;5.50;;;;;;;;;;5038803;28;20029;-80
2021/12/02 09:36:42;;;;;;;12.57;4.00;;;;;;;;;;5020966;28;20064;-80
2021/12/02 09:39:09;;;;;;;32.08;5.22;;;;;;;;;;5039101;28;20030;-80
2021/12/02 09:41:35;;;;;;;22.45;5.40;;;;;;;;;;5038862;28;20104;-80
2021/12/02 09:44:02;;;;;;;19.23;5.57;;;;;;;;;;5005065;28;20371;-80
2021/12/02 09:46:28;;;;;;;24.70;7.30;;;;;;;;;;5026483;23;20041;-80
2021/12/02 09:48:55;;;;;;;26.88;6.97;;;;;;;;;;5072078;22;20542;-80
2021/12/02 09:51:27;;;;;;;21.25;6.93;;;;;;;;;;5038734;28;20440;-81
2021/12/02 09:53:59;;;;;;;20.60;5.95;;;;;;;;;;5040606;28;20112;-81
2021/12/02 09:56:31;;;;;;;25.33;6.85;;;;;;;;;;5028908;23;20065;-81
2021/12/02 09:59:03;;;;;;;24.40;8.10;;;;;;;;;;5073238;22;20443;-80
2021/12/02 10:01:44;;;;;;;36.40;9.00;;;;;;;;;;5039653;28;20403;-80
2021/12/02 10:04:12;;;;;;;30.05;8.68;;;;;;;;;;5038775;28;20470;-80
2021/12/02 10:06:40;;;;;;;43.55;10.57;;;;;;;;;;5038226;28;20400;-80
2021/12/02 10:09:37;;;;;;;38.95;8.27;;;;;;;;;;5038520;28;20022;-81
2021/12/02 10:12:11;;;;;;;25.75;7.90;;;;;;;;;;5021117;28;20018;-81
2021/12/02 10:14:39;;;;;;;44.13;8.63;;;;;;;;;;5038934;28;20039;-80
2021/12/02 10:17:15;;;;;;;52.22;10.13;;;;;;;;;;5038829;28;20023;-80
2021/12/02 10:19:59;;;;;;;39.42;9.82;;;;;;;;;;5021348;28;20092;-80
2021/12/02 10:22:26;;;;;;;33.53;13.57;;;;;;;;;;5020583;28;20029;-80
2021/12/02 10:24:52;;;;;;;47.72;13.35;;;;;;;;;;5025724;23;20067;-67
2021/12/02 10:27:23;;;;;;;39.38;11.95;;;;;;;;;;5053576;23;20021;-80
2021/12/02 10:29:50;;;;;;;26.77;10.63;;;;;;;;;;4998490;28;20357;-80
2021/12/02 10:32:21;;;;;;;39.83;11.38;;;;;;;;;;4982238;28;20030;-80
2021/12/02 10:34:48;;;;;;;58.92;14.70;;;;;;;;;;4982261;28;20023;-80
2021/12/02 10:37:17;;;;;;;43.15;10.93;;;;;;;;;;4988595;28;20054;-80
2021/12/02 10:40:06;;;;;;;47.08;11.23;;;;;;;;;;4983976;28;20473;-80
2021/12/02 10:42:33;;;;;;;59.83;14.43;;;;;;;;;;5025394;23;20056;-80
2021/12/02 10:45:02;;;;;;;69.10;14.85;;;;;;;;;;5037821;28;20032;-80
2021/12/02 10:47:28;;;;;;;62.58;18.98;;;;;;;;;;5037701;28;20028;-80
2021/12/02 10:49:59;;;;;;;77.63;19.08;;;;;;;;;;5041740;28;20022;-80
2021/12/02 10:52:25;;;;;;;;;;;;;;;;;;5038305;28;20403;-80
2021/12/02 10:54:55;;;;;;;48.85;12.45;;;;;;;;;;5020822;28;19905;-80
2021/12/02 10:57:23;;;;;;;60.22;16.15;;;;;;;;;;5037323;28;20034;-80
2021/12/02 10:59:50;;;;;;;71.63;27.98;;;;;;;;;;5037535;28;20021;-80
2021/12/02 11:02:19;;;;;;;60.90;21.95;;;;;;;;;;5181608;22;20382;-78
2021/12/02 11:04:47;;;;;;;60.92;27.27;;;;;;;;;;5130897;22;20041;-78
2021/12/02 11:07:19;;;;;;;77.25;39.20;;;;;;;;;;5067124;23;20046;-78
2021/12/02 11:09:45;;;;;;;92.07;39.08;;;;;;;;;;5040469;28;20364;-78
2021/12/02 11:12:13;;;;;;;89.80;44.17;;;;;;;;;;5039158;28;20112;-78
2021/12/02 11:14:42;;;;;;;97.97;33.58;;;;;;;;;;5039978;28;20024;-78
2021/12/02 11:17:12;;;;;;;57.28;28.00;;;;;;;;;;5006435;28;20139;-78
2021/12/02 11:19:42;;;;;;;70.45;32.85;;;;;;;;;;5022757;28;20044;-78
2021/12/02 11:22:10;;;;;;;71.93;30.85;;;;;;;;;;5040989;28;20112;-79
2021/12/02 11:24:37;;;;;;;42.83;21.23;;;;;;;;;;5007321;28;20342;-78
2021/12/02 11:27:32;;;;;;;54.60;23.92;;;;;;;;;;5023483;28;20025;-78
2021/12/02 11:30:08;;;;;;;72.45;18.45;;;;;;;;;;5002709;28;20049;-78
2021/12/02 11:32:40;;;;;;;51.25;21.13;;;;;;;;;;5041253;28;20033;-79
2021/12/02 11:35:08;;;;;;;86.82;27.05;;;;;;;;;;5040925;28;20021;-78
2021/12/02 11:37:36;;;;;;;81.28;25.60;;;;;;;;;;5040285;28;20065;-78
2021/12/02 11:40:04;;;;;;;99.57;22.00;;;;;;;;;;5023554;28;20021;-78
2021/12/02 11:42:30;;;;;;;86.10;25.08;;;;;;;;;;5041470;28;20022;-78
2021/12/02 11:44:57;;;;;;;54.15;22.10;;;;;;;;;;5024654;28;20018;-78
2021/12/02 11:47:23;;;;;;;57.97;19.27;;;;;;;;;;5041234;28;20037;-79
2021/12/02 11:49:49;;;;;;;48.45;15.90;;;;;;;;;;5042207;28;20021;-79
2021/12/02 11:52:16;;;;;;;64.30;17.75;;;;;;;;;;5041611;28;20032;-79
2021/12/02 11:54:42;;;;;;;88.55;21.15;;;;;;;;;;5024548;28;20037;-79
2021/12/02 11:57:09;;;;;;;55.38;20.33;;;;;;;;;;5025072;28;20143;-78
2021/12/02 11:59:35;;;;;;;45.90;17.13;;;;;;;;;;5023183;28;20044;-78
2021/12/02 12:02:01;;;;;;;64.03;20.02;;;;;;;;;;5024621;28;20021;-78
2021/12/02 12:04:27;;;;;;;53.90;19.05;;;;;;;;;;5023854;28;20025;-78
2021/12/02 12:07:07;;;;;;;46.40;19.52;;;;;;;;;;5038071;28;20375;-78
2021/12/02 12:09:33;;;;;;;50.45;12.10;;;;;;;;;;5004933;28;20025;-79
2021/12/02 12:11:59;;;;;;;42.42;14.45;;;;;;;;;;5039597;28;20036;-78
2021/12/02 12:14:44;;;;;;;54.85;14.63;;;;;;;;;;5040020;28;20076;-78
2021/12/02 12:17:10;;;;;;;32.72;11.65;;;;;;;;;;5006201;28;20017;-79
2021/12/02 12:19:41;;;;;;;39.30;12.90;;;;;;;;;;5040114;28;20027;-78
2021/12/02 12:22:07;;;;;;;61.80;18.17;;;;;;;;;;5021550;28;20021;-79
2021/12/02 12:24:50;;;;;;;53.63;21.27;;;;;;;;;;5023967;28;20018;-79
2021/12/02 12:27:29;;;;;;;46.03;23.02;;;;;;;;;;5023382;28;20029;-78
2021/12/02 12:30:02;;;;;;;47.38;20.77;;;;;;;;;;5022419;28;20040;-76
2021/12/02 12:35:24;;;;;;;53.55;15.10;;;;;;;;;;5040018;28;20021;-78
2021/12/02 12:37:53;;;;;;;40.10;17.53;;;;;;;;;;5022613;28;20063;-78
2021/12/02 12:40:21;;;;;;;45.83;21.33;;;;;;;;;;5040232;28;20018;-78
2021/12/02 12:42:49;;;;;;;39.72;19.83;;;;;;;;;;5039586;28;20104;-78
2021/12/02 12:45:26;;;;;;;70.05;22.25;;;;;;;;;;5040157;28;20017;-78
2021/12/02 12:47:53;;;;;;;41.67;18.75;;;;;;;;;;5021876;28;20060;-78
2021/12/02 12:50:22;;;;;;;47.67;18.17;;;;;;;;;;5037793;28;20013;-78
2021/12/02 12:52:55;;;;;;;49.47;16.42;;;;;;;;;;5005038;28;20323;-78
2021/12/02 12:55:22;;;;;;;39.50;14.98;;;;;;;;;;5021293;28;20024;-78
2021/12/02 12:58:07;;;;;;;49.15;14.38;;;;;;;;;;5022038;28;20427;-78
2021/12/02 13:00:37;;;;;;;42.13;16.83;;;;;;;;;;5020749;28;20123;-79
2021/12/02 13:03:03;;;;;;;;;;;;;;;;;;5019177;28;20029;-77
2021/12/02 13:05:45;;;;;;;60.42;28.17;;;;;;;;;;5039893;28;19905;-77
2021/12/02 13:08:17;;;;;;;124.07;57.47;;;;;;;;;;5041071;28;20057;-77
2021/12/02 13:11:00;;;;;;;162.68;72.00;;;;;;;;;;5022674;28;20029;-77
2021/12/02 13:13:32;;;;;;;142.15;70.80;;;;;;;;;;5040875;28;20025;-77
2021/12/02 13:16:09;;;;;;;118.20;52.97;;;;;;;;;;5023385;28;20466;-77
2021/12/02 13:18:37;;;;;;;149.98;77.15;;;;;;;;;;5040152;28;20041;-78
2021/12/02 13:21:20;;;;;;;180.30;83.50;;;;;;;;;;5040730;28;20025;-78
2021/12/02 13:24:04;;;;;;;151.55;71.28;;;;;;;;;;5006764;28;20028;-77
2021/12/02 13:26:31;;;;;;;190.85;89.25;;;;;;;;;;5022993;28;20018;-78
2021/12/02 13:29:00;;;;;;;175.63;84.05;;;;;;;;;;5041067;28;20028;-78
2021/12/02 13:31:27;;;;;;;215.60;102.95;;;;;;;;;;5022710;28;20510;-78
2021/12/02 13:33:59;;;;;;;199.82;91.20;;;;;;;;;;5023227;28;20032;-78
2021/12/02 13:36:36;;;;;;;162.95;82.07;;;;;;;;;;5040104;28;20017;-78
2021/12/02 13:39:11;;;;;;;156.02;79.82;;;;;;;;;;5007704;28;20527;-78
2021/12/02 13:41:42;;;;;;;180.63;74.03;;;;;;;;;;5024026;28;20021;-78
2021/12/02 13:44:14;;;;;;;160.10;75.68;;;;;;;;;;5042462;28;20017;-78
2021/12/02 13:46:42;;;;;;;147.05;77.35;;;;;;;;;;5021653;28;20018;-78
2021/12/02 13:49:13;;;;;;;165.68;76.03;;;;;;;;;;5022550;28;20116;-78
2021/12/02 13:54:28;;;;;;;129.38;60.95;;;;;;;;;;5040727;28;20021;-78
2021/12/02 13:56:56;;;;;;;109.75;49.47;;;;;;;;;;5007253;28;20021;-78
2021/12/02 13:59:25;;;;;;;106.30;49.22;;;;;;;;;;5041886;28;20040;-78
2021/12/02 14:01:55;;;;;;;103.13;52.42;;;;;;;;;;5041890;28;20021;-78
2021/12/02 14:04:21;;;;;;;101.32;53.63;;;;;;;;;;5041672;28;20028;-78
2021/12/02 14:06:47;;;;;;;111.93;49.85;;;;;;;;;;5022800;28;20316;-78
2021/12/02 14:09:17;;;;;;;106.43;51.88;;;;;;;;;;5040253;28;20391;-78
2021/12/02 14:11:44;;;;;;;124.13;58.72;;;;;;;;;;5023719;28;20025;-78
2021/12/02 14:14:17;;;;;;;152.18;67.53;;;;;;;;;;5008397;28;20037;-79
2021/12/02 14:16:43;;;;;;;161.30;80.97;;;;;;;;;;5008993;28;20026;-79
2021/12/02 14:19:10;;;;;;;122.70;63.35;;;;;;;;;;5041577;28;20565;-78
2021/12/02 14:21:36;;;;;;;103.95;56.50;;;;;;;;;;5024004;28;20022;-78
2021/12/02 14:24:03;;;;;;;105.60;49.28;;;;;;;;;;5023489;28;20022;-78
2021/12/02 14:26:29;;;;;;;80.93;41.38;;;;;;;;;;5007665;28;20018;-78
2021/12/02 14:28:56;;;;;;;76.53;41.33;;;;;;;;;;5021279;28;20437;-78
2021/12/02 14:31:33;;;;;;;92.00;49.58;;;;;;;;;;5039101;28;20308;-78
2021/12/02 14:34:00;;;;;;;104.85;54.60;;;;;;;;;;5040642;28;20040;-79
2021/12/02 14:36:27;;;;;;;102.25;52.72;;;;;;;;;;5021497;28;20319;-78
2021/12/02 14:39:01;;;;;;;111.57;59.38;;;;;;;;;;5021599;28;20044;-77
2021/12/02 14:41:32;;;;;;;128.18;64.78;;;;;;;;;;5022141;28;20472;-77
2021/12/02 14:43:58;;;;;;;;;;;;;;;;;;5040460;28;20028;-77
2021/12/02 14:46:39;;;;;;;105.25;48.88;;;;;;;;;;5038601;28;19905;-77
2021/12/02 14:49:05;;;;;;;76.88;40.88;;;;;;;;;;5021586;28;20025;-77
2021/12/02 14:51:53;;;;;;;79.30;42.92;;;;;;;;;;5039719;28;20323;-77
2021/12/02 14:54:28;;;;;;;82.78;43.22;;;;;;;;;;5004582;28;20025;-77
2021/12/02 14:56:54;;;;;;;79.60;44.25;;;;;;;;;;5005152;28;20070;-77
2021/12/02 14:59:25;;;;;;;76.13;40.17;;;;;;;;;;5039311;28;20339;-78
2021/12/02 15:01:51;;;;;;;;;;;;;;;;;;5039696;28;20447;-76
2021/12/02 15:04:17;;;;;;;104.88;56.35;;;;;;;;;;5039933;28;19939;-77
2021/12/02 15:06:44;;;;;;;112.03;53.00;;;;;;;;;;5040399;28;20036;-77
2021/12/02 15:09:29;;;;;;;120.38;60.60;;;;;;;;;;5038934;28;20021;-77